Time;durP1;ratioP1;P1;durP2;ratioP2;P2;SDS_P1;SDS_P2;PMS_P1;PMS_P2;Temp;Humidity;BMP_temperature;BMP_pressure;BME280_temperature;BME280_humidity;BME280_pressure;Samples;Min_cycle;Max_cycle;Signal;HPM_P1;HPM_P2
2024/04/15 00:02:19;;;;;;;4.70;3.70;;;;;;;;;;6583544;26;20014;-84
2024/04/15 00:05:21;;;;;;;4.55;3.40;;;;;;;;;;6609129;26;20013;-83
2024/04/15 00:08:24;;;;;;;5.05;3.00;;;;;;;;;;6614906;26;20025;-84
2024/04/15 00:11:26;;;;;;;5.23;3.30;;;;;;;;;;6607427;26;20009;-84
2024/04/15 00:14:28;;;;;;;6.18;3.17;;;;;;;;;;6611919;26;20017;-84
2024/04/15 00:17:30;;;;;;;8.40;3.53;;;;;;;;;;6614037;26;20137;-84
2024/04/15 00:20:33;;;;;;;6.33;3.97;;;;;;;;;;6608991;26;20537;-84
2024/04/15 00:23:35;;;;;;;6.35;4.03;;;;;;;;;;6617026;26;20016;-84
2024/04/15 00:26:37;;;;;;;5.65;3.80;;;;;;;;;;6612734;26;20553;-84
2024/04/15 00:29:40;;;;;;;5.15;3.42;;;;;;;;;;6613018;26;20471;-84
2024/04/15 00:32:42;;;;;;;7.68;3.90;;;;;;;;;;6609365;26;19997;-84
2024/04/15 00:35:45;;;;;;;4.67;3.77;;;;;;;;;;6610514;26;20024;-83
2024/04/15 00:38:47;;;;;;;5.53;3.53;;;;;;;;;;6580491;26;20049;-83
2024/04/15 00:41:49;;;;;;;6.25;3.55;;;;;;;;;;6603591;26;20028;-85
2024/04/15 00:44:52;;;;;;;5.57;4.28;;;;;;;;;;6613775;26;20430;-84
2024/04/15 00:47:54;;;;;;;5.80;4.10;;;;;;;;;;6608626;26;20086;-83
2024/04/15 00:50:56;;;;;;;6.75;4.20;;;;;;;;;;6617084;26;20001;-83
2024/04/15 00:53:59;;;;;;;8.35;4.05;;;;;;;;;;6607764;26;20010;-84
2024/04/15 00:57:02;;;;;;;8.63;3.72;;;;;;;;;;6620843;26;20005;-83
2024/04/15 01:00:04;;;;;;;5.97;3.50;;;;;;;;;;6607003;26;20017;-83
2024/04/15 01:03:08;;;;;;;5.75;4.15;;;;;;;;;;6612159;26;20023;-84
2024/04/15 01:06:10;;;;;;;8.20;3.83;;;;;;;;;;6600052;26;20009;-84
2024/04/15 01:09:12;;;;;;;6.32;4.03;;;;;;;;;;6607367;26;20055;-84
2024/04/15 01:12:14;;;;;;;4.97;3.40;;;;;;;;;;6609804;26;20452;-83
2024/04/15 01:15:16;;;;;;;7.68;4.03;;;;;;;;;;6611140;26;20005;-83
2024/04/15 01:18:18;;;;;;;4.47;3.63;;;;;;;;;;6604346;26;20013;-83
2024/04/15 01:21:21;;;;;;;4.93;3.50;;;;;;;;;;6594283;26;20074;-83
2024/04/15 01:24:23;;;;;;;5.88;3.67;;;;;;;;;;6615175;26;20015;-83
2024/04/15 01:27:26;;;;;;;6.03;3.30;;;;;;;;;;6614688;26;20017;-83
2024/04/15 01:30:29;;;;;;;6.00;4.13;;;;;;;;;;6617099;26;20001;-83
2024/04/15 01:33:31;;;;;;;5.90;3.78;;;;;;;;;;6622213;26;20079;-83
2024/04/15 01:36:33;;;;;;;5.87;3.83;;;;;;;;;;6605483;26;20020;-82
2024/04/15 01:39:35;;;;;;;5.32;3.60;;;;;;;;;;6601243;26;20001;-83
2024/04/15 01:42:38;;;;;;;5.87;3.87;;;;;;;;;;6604582;26;20076;-83
2024/04/15 01:45:40;;;;;;;8.35;4.15;;;;;;;;;;6616047;26;20036;-83
2024/04/15 01:48:42;;;;;;;7.90;3.73;;;;;;;;;;6599613;26;20036;-84
2024/04/15 01:51:44;;;;;;;7.17;3.80;;;;;;;;;;6603696;26;20012;-83
2024/04/15 01:54:47;;;;;;;6.50;4.18;;;;;;;;;;6595079;26;20038;-83
2024/04/15 01:57:49;;;;;;;6.93;3.80;;;;;;;;;;6577445;26;20474;-83
2024/04/15 02:00:52;;;;;;;7.43;4.30;;;;;;;;;;6609382;26;20350;-84
2024/04/15 02:03:56;;;;;;;6.70;4.63;;;;;;;;;;6602595;26;20013;-83
2024/04/15 02:06:59;;;;;;;7.30;4.47;;;;;;;;;;6607083;26;20016;-83
2024/04/15 02:10:01;;;;;;;7.83;4.33;;;;;;;;;;6604681;26;20016;-83
2024/04/15 02:13:03;;;;;;;11.17;5.50;;;;;;;;;;6604209;26;20008;-83
2024/04/15 02:16:06;;;;;;;9.03;4.47;;;;;;;;;;6607178;26;20023;-83
2024/04/15 02:19:08;;;;;;;8.17;4.53;;;;;;;;;;6610758;26;20498;-83
2024/04/15 02:22:11;;;;;;;7.63;4.40;;;;;;;;;;6615572;26;20504;-83
2024/04/15 02:25:13;;;;;;;9.13;4.80;;;;;;;;;;6612531;26;20072;-82
2024/04/15 02:28:16;;;;;;;9.93;4.97;;;;;;;;;;6611389;26;20545;-83
2024/04/15 02:31:18;;;;;;;11.27;4.70;;;;;;;;;;6572451;26;20020;-83
2024/04/15 02:34:21;;;;;;;9.75;4.97;;;;;;;;;;6616584;26;20418;-83
2024/04/15 02:37:23;;;;;;;11.45;5.05;;;;;;;;;;6613146;26;20020;-84
2024/04/15 02:40:26;;;;;;;13.65;5.80;;;;;;;;;;6618964;26;20482;-84
2024/04/15 02:43:28;;;;;;;10.32;5.43;;;;;;;;;;6608130;26;20005;-84
2024/04/15 02:46:30;;;;;;;14.20;6.47;;;;;;;;;;6608445;26;20010;-83
2024/04/15 02:49:33;;;;;;;8.52;5.50;;;;;;;;;;6615837;26;20000;-83
2024/04/15 02:52:35;;;;;;;10.73;6.13;;;;;;;;;;6615510;26;20355;-83
2024/04/15 02:55:37;;;;;;;12.90;6.30;;;;;;;;;;6614972;26;20016;-83
2024/04/15 02:58:39;;;;;;;10.05;6.10;;;;;;;;;;6605584;26;20529;-83
2024/04/15 03:01:42;;;;;;;10.70;6.65;;;;;;;;;;6599038;26;20334;-83
2024/04/15 03:04:44;;;;;;;11.27;6.47;;;;;;;;;;6617169;26;20073;-83
2024/04/15 03:07:49;;;;;;;12.80;6.93;;;;;;;;;;6594643;26;20016;-83
2024/04/15 03:10:51;;;;;;;13.73;6.43;;;;;;;;;;6600444;26;20416;-83
2024/04/15 03:13:54;;;;;;;13.77;6.28;;;;;;;;;;6599326;26;20525;-82
2024/04/15 03:16:56;;;;;;;11.25;6.22;;;;;;;;;;6598731;26;20008;-82
2024/04/15 03:19:58;;;;;;;11.27;6.43;;;;;;;;;;6609446;26;20021;-83
2024/04/15 03:23:01;;;;;;;18.03;6.93;;;;;;;;;;6608288;26;20008;-83
2024/04/15 03:26:03;;;;;;;13.77;7.05;;;;;;;;;;6606434;26;19997;-83
2024/04/15 03:29:05;;;;;;;16.33;9.40;;;;;;;;;;6605286;26;20814;-84
2024/04/15 03:32:07;;;;;;;15.60;9.15;;;;;;;;;;6611073;26;20452;-83
2024/04/15 03:35:14;;;;;;;15.07;7.30;;;;;;;;;;6580546;26;20016;-83
2024/04/15 03:38:16;;;;;;;10.80;6.97;;;;;;;;;;6614667;26;20000;-84
2024/04/15 03:41:19;;;;;;;13.43;6.50;;;;;;;;;;6627359;26;20435;-83
2024/04/15 03:44:22;;;;;;;13.50;6.90;;;;;;;;;;6598905;26;20050;-83
2024/04/15 03:47:24;;;;;;;11.50;7.03;;;;;;;;;;6599601;26;20076;-84
2024/04/15 03:50:27;;;;;;;13.23;6.63;;;;;;;;;;6613329;26;20083;-84
2024/04/15 03:53:29;;;;;;;13.07;7.07;;;;;;;;;;6618378;26;20027;-83
2024/04/15 03:56:31;;;;;;;12.93;7.22;;;;;;;;;;6619361;26;20005;-84
2024/04/15 03:59:35;;;;;;;14.88;7.18;;;;;;;;;;6621202;26;20005;-83
2024/04/15 04:02:37;;;;;;;13.10;6.85;;;;;;;;;;6609113;26;20005;-83
2024/04/15 04:05:41;;;;;;;17.17;7.38;;;;;;;;;;6618260;26;20006;-83
2024/04/15 04:08:43;;;;;;;12.17;6.90;;;;;;;;;;6620766;26;20012;-84
2024/04/15 04:11:49;;;;;;;12.45;6.93;;;;;;;;;;6616348;26;20518;-83
2024/04/15 04:14:51;;;;;;;12.38;6.43;;;;;;;;;;6569838;26;20466;-83
2024/04/15 04:17:53;;;;;;;12.60;6.20;;;;;;;;;;6600034;26;20006;-84
2024/04/15 04:20:55;;;;;;;12.23;6.80;;;;;;;;;;6607592;26;20001;-84
2024/04/15 04:23:59;;;;;;;12.98;6.45;;;;;;;;;;6621482;26;20071;-84
2024/04/15 04:27:01;;;;;;;13.70;6.80;;;;;;;;;;6616188;26;20015;-84
2024/04/15 04:30:03;;;;;;;13.17;7.03;;;;;;;;;;6627416;26;20015;-85
2024/04/15 04:33:06;;;;;;;12.43;6.60;;;;;;;;;;6617954;26;20012;-83
2024/04/15 04:36:08;;;;;;;11.40;6.27;;;;;;;;;;6649553;26;20005;-83
2024/04/15 04:39:10;;;;;;;12.17;6.87;;;;;;;;;;6628638;26;20016;-82
2024/04/15 04:42:12;;;;;;;14.32;6.93;;;;;;;;;;6616442;26;20009;-82
2024/04/15 04:45:15;;;;;;;9.20;6.20;;;;;;;;;;6634377;26;20011;-83
2024/04/15 04:48:17;;;;;;;10.53;6.10;;;;;;;;;;6573015;26;20006;-83
2024/04/15 04:51:19;;;;;;;10.48;6.25;;;;;;;;;;6601851;26;20419;-83
2024/04/15 04:54:21;;;;;;;12.50;7.00;;;;;;;;;;6617899;26;19997;-82
2024/04/15 04:57:24;;;;;;;13.57;7.07;;;;;;;;;;6610620;26;20020;-82
2024/04/15 05:00:26;;;;;;;10.52;6.32;;;;;;;;;;6602983;26;20467;-82
2024/04/15 05:03:28;;;;;;;12.27;6.95;;;;;;;;;;6590844;26;20340;-82
2024/04/15 05:06:31;;;;;;;11.57;6.78;;;;;;;;;;6582303;26;20017;-82
2024/04/15 05:09:33;;;;;;;15.00;6.75;;;;;;;;;;6608852;26;20011;-82
2024/04/15 05:12:35;;;;;;;10.98;6.63;;;;;;;;;;6603102;26;20016;-83
2024/04/15 05:15:37;;;;;;;11.27;7.43;;;;;;;;;;6608609;26;20005;-83
2024/04/15 05:18:43;;;;;;;10.68;6.13;;;;;;;;;;6607066;26;20020;-83
2024/04/15 05:21:45;;;;;;;12.15;6.60;;;;;;;;;;6605109;26;20013;-83
2024/04/15 05:24:48;;;;;;;13.50;6.57;;;;;;;;;;6618030;26;20023;-83
2024/04/15 05:27:50;;;;;;;11.93;6.77;;;;;;;;;;6611679;26;20001;-83
2024/04/15 05:30:54;;;;;;;12.83;7.57;;;;;;;;;;6629464;26;20009;-83
2024/04/15 05:33:56;;;;;;;15.20;7.30;;;;;;;;;;6615096;26;20005;-83
2024/04/15 05:36:58;;;;;;;12.67;7.03;;;;;;;;;;6608270;26;20057;-83
2024/04/15 05:40:00;;;;;;;10.45;6.28;;;;;;;;;;6604438;26;20022;-82
2024/04/15 05:43:07;;;;;;;12.93;7.10;;;;;;;;;;6601069;26;20454;-83
2024/04/15 05:46:13;;;;;;;11.85;6.47;;;;;;;;;;6602487;26;20434;-83
2024/04/15 05:49:15;;;;;;;13.40;6.65;;;;;;;;;;6604733;26;20015;-83
2024/04/15 05:52:17;;;;;;;12.87;7.13;;;;;;;;;;6585589;26;20020;-83
2024/04/15 05:55:20;;;;;;;10.32;6.43;;;;;;;;;;6588580;26;20057;-84
2024/04/15 05:58:22;;;;;;;13.35;7.07;;;;;;;;;;6616548;26;20020;-83
2024/04/15 06:01:25;;;;;;;10.30;6.75;;;;;;;;;;6612017;26;20061;-83
2024/04/15 06:04:27;;;;;;;10.02;6.45;;;;;;;;;;6592681;26;20011;-83
2024/04/15 06:07:30;;;;;;;13.97;7.17;;;;;;;;;;6598174;26;20006;-83
2024/04/15 06:10:32;;;;;;;9.73;6.30;;;;;;;;;;6612188;26;20057;-83
2024/04/15 06:13:34;;;;;;;14.15;7.15;;;;;;;;;;6616764;26;20078;-83
2024/04/15 06:16:36;;;;;;;11.82;6.72;;;;;;;;;;6595055;26;20021;-83
2024/04/15 06:19:40;;;;;;;10.10;5.63;;;;;;;;;;6609407;26;20361;-83
2024/04/15 06:22:42;;;;;;;9.25;5.07;;;;;;;;;;6614112;26;20360;-83
2024/04/15 06:25:50;;;;;;;7.17;4.77;;;;;;;;;;6613412;26;20010;-83
2024/04/15 06:28:52;;;;;;;6.78;4.80;;;;;;;;;;6604142;26;20017;-84
2024/04/15 06:31:55;;;;;;;8.30;4.83;;;;;;;;;;6608986;26;20052;-84
2024/04/15 06:34:57;;;;;;;8.88;3.83;;;;;;;;;;6612039;26;20414;-84
2024/04/15 06:37:59;;;;;;;8.35;4.13;;;;;;;;;;6614142;26;20023;-83
2024/04/15 06:41:01;;;;;;;7.60;3.90;;;;;;;;;;6620549;26;20451;-84
2024/04/15 06:44:04;;;;;;;8.02;3.67;;;;;;;;;;6601722;26;20014;-83
2024/04/15 06:47:06;;;;;;;;;;;;;;;;;;6578815;26;20682;-83
2024/04/15 06:50:09;;;;;;;6.93;3.08;;;;;;;;;;6604558;26;19932;-83
2024/04/15 06:53:11;;;;;;;7.30;3.53;;;;;;;;;;6629261;26;20082;-83
2024/04/15 06:56:13;;;;;;;6.97;3.63;;;;;;;;;;6614251;26;20015;-84
2024/04/15 06:59:16;;;;;;;6.72;3.10;;;;;;;;;;6610957;26;20310;-83
2024/04/15 07:02:22;;;;;;;5.75;3.35;;;;;;;;;;6633031;26;20016;-84
2024/04/15 07:05:25;;;;;;;10.30;3.78;;;;;;;;;;6602617;26;20005;-82
2024/04/15 07:08:27;;;;;;;4.97;2.87;;;;;;;;;;6611439;26;20020;-83
2024/04/15 07:11:29;;;;;;;5.57;3.00;;;;;;;;;;6602361;26;20005;-82
2024/04/15 07:14:32;;;;;;;6.13;3.22;;;;;;;;;;6611703;26;20023;-81
2024/04/15 07:17:36;;;;;;;4.07;2.63;;;;;;;;;;6623683;26;20013;-81
2024/04/15 07:20:38;;;;;;;4.78;2.80;;;;;;;;;;6610405;26;20013;-81
2024/04/15 07:23:44;;;;;;;6.97;2.63;;;;;;;;;;6610803;26;20005;-81
2024/04/15 07:26:47;;;;;;;4.32;2.30;;;;;;;;;;6614153;26;20856;-80
2024/04/15 07:29:49;;;;;;;5.33;1.77;;;;;;;;;;6605069;26;20024;-78
2024/04/15 07:32:52;;;;;;;5.90;1.87;;;;;;;;;;6600674;26;20532;-81
2024/04/15 07:35:55;;;;;;;3.75;1.80;;;;;;;;;;6609927;26;20056;-79
2024/04/15 07:38:58;;;;;;;4.40;1.42;;;;;;;;;;6622244;26;20113;-79
2024/04/15 07:42:00;;;;;;;;;;;;;;;;;;6614227;26;20005;-81
2024/04/15 07:45:03;;;;;;;6.05;1.60;;;;;;;;;;6608957;26;19969;-83
2024/04/15 07:48:06;;;;;;;4.45;1.73;;;;;;;;;;6612632;26;20028;-80
2024/04/15 07:51:09;;;;;;;6.15;1.67;;;;;;;;;;6605174;26;20006;-81
2024/04/15 07:54:11;;;;;;;3.60;1.30;;;;;;;;;;6610569;26;20012;-80
2024/04/15 07:57:13;;;;;;;3.43;1.40;;;;;;;;;;6607258;26;20082;-81
2024/04/15 08:00:17;;;;;;;5.78;1.48;;;;;;;;;;6614389;26;20012;-80
2024/04/15 08:03:20;;;;;;;3.70;1.05;;;;;;;;;;6602507;26;20017;-80
2024/04/15 08:06:23;;;;;;;3.00;1.33;;;;;;;;;;6616234;26;20001;-80
2024/04/15 08:09:25;;;;;;;;;;;;;;;;;;6620913;26;20675;-80
2024/04/15 08:12:29;;;;;;;3.25;1.20;;;;;;;;;;6611509;26;19927;-79
2024/04/15 08:15:31;;;;;;;4.90;1.10;;;;;;;;;;6602426;26;20016;-79
2024/04/15 08:18:33;;;;;;;2.75;1.17;;;;;;;;;;6606974;26;20027;-80
2024/04/15 08:21:35;;;;;;;1.97;1.00;;;;;;;;;;6605334;26;20767;-80
2024/04/15 08:24:38;;;;;;;2.73;1.13;;;;;;;;;;6592514;26;20010;-79
2024/04/15 08:27:40;;;;;;;4.13;0.90;;;;;;;;;;6608910;26;20072;-78
2024/04/15 08:30:43;;;;;;;3.00;1.13;;;;;;;;;;6611779;26;20000;-78
2024/04/15 08:33:45;;;;;;;2.90;0.80;;;;;;;;;;6613545;26;20005;-77
2024/04/15 08:36:47;;;;;;;2.55;1.05;;;;;;;;;;6608408;26;20029;-77
2024/04/15 08:39:50;;;;;;;2.33;1.05;;;;;;;;;;6617395;26;20015;-78
2024/04/15 08:42:53;;;;;;;3.97;1.10;;;;;;;;;;6612817;26;20020;-78
2024/04/15 08:46:01;;;;;;;4.90;1.40;;;;;;;;;;6606795;26;20381;-76
2024/04/15 08:49:03;;;;;;;1.33;0.85;;;;;;;;;;6610285;26;20000;-79
2024/04/15 08:52:06;;;;;;;9.87;1.90;;;;;;;;;;6602213;26;20005;-79
2024/04/15 08:55:10;;;;;;;5.50;1.40;;;;;;;;;;6611391;26;20059;-79
2024/04/15 08:58:13;;;;;;;4.40;1.10;;;;;;;;;;6606996;26;20020;-78
2024/04/15 09:01:15;;;;;;;4.90;1.10;;;;;;;;;;6599485;26;20010;-79
2024/04/15 09:04:18;;;;;;;18.58;2.13;;;;;;;;;;6619603;26;20002;-79
2024/04/15 09:07:20;;;;;;;5.00;1.08;;;;;;;;;;6608696;26;20017;-80
2024/04/15 09:10:23;;;;;;;2.42;1.23;;;;;;;;;;6612656;26;20418;-77
2024/04/15 09:13:26;;;;;;;3.67;1.10;;;;;;;;;;6574486;26;20526;-79
2024/04/15 09:16:28;;;;;;;3.08;1.65;;;;;;;;;;6585383;26;20012;-79
2024/04/15 09:19:32;;;;;;;3.25;1.60;;;;;;;;;;6605391;26;20005;-77
2024/04/15 09:22:37;;;;;;;2.22;0.75;;;;;;;;;;6610290;26;20077;-78
2024/04/15 09:25:39;;;;;;;3.17;0.90;;;;;;;;;;6601538;26;20016;-79
2024/04/15 09:28:41;;;;;;;1.67;0.80;;;;;;;;;;6613143;26;20002;-78
2024/04/15 09:31:44;;;;;;;4.85;1.20;;;;;;;;;;6600901;26;20025;-78
2024/04/15 09:34:47;;;;;;;3.30;1.30;;;;;;;;;;6598435;26;20017;-77
2024/04/15 09:37:50;;;;;;;2.03;1.05;;;;;;;;;;6615208;26;20375;-78
2024/04/15 09:40:53;;;;;;;7.63;1.38;;;;;;;;;;6604077;26;20423;-81
2024/04/15 09:43:56;;;;;;;2.35;1.00;;;;;;;;;;6612735;26;20020;-80
2024/04/15 09:47:04;;;;;;;;;;;;;;;;;;6610279;26;20020;-81
2024/04/15 09:50:07;;;;;;;4.72;1.00;;;;;;;;;;6603030;26;19933;-81
2024/04/15 09:53:19;;;;;;;3.20;1.08;;;;;;;;;;6611888;26;20009;-80
2024/04/15 09:56:28;;;;;;;5.80;1.50;;;;;;;;;;6601076;26;20074;-81
2024/04/15 09:59:38;;;;;;;1.58;0.77;;;;;;;;;;6610215;26;19998;-81
2024/04/15 10:02:58;;;;;;;6.07;1.52;;;;;;;;;;6624382;26;20433;-81
2024/04/15 10:06:04;;;;;;;1.92;0.90;;;;;;;;;;6604033;26;20018;-81
2024/04/15 10:09:07;;;;;;;3.63;0.90;;;;;;;;;;6614674;26;20008;-82
2024/04/15 10:12:09;;;;;;;2.65;0.70;;;;;;;;;;6612713;26;20005;-82
2024/04/15 10:15:12;;;;;;;1.83;0.88;;;;;;;;;;6619150;26;20052;-83
2024/04/15 10:18:16;;;;;;;3.20;1.00;;;;;;;;;;6607377;26;20010;-83
2024/04/15 10:21:19;;;;;;;5.40;0.80;;;;;;;;;;6607923;26;20032;-82
2024/04/15 10:24:25;;;;;;;3.45;1.02;;;;;;;;;;6604953;26;20434;-83
2024/04/15 10:27:28;;;;;;;2.17;0.75;;;;;;;;;;6602882;26;20017;-82
2024/04/15 10:30:31;;;;;;;2.27;0.60;;;;;;;;;;6608256;26;20014;-82
2024/04/15 10:33:34;;;;;;;2.40;0.70;;;;;;;;;;6612559;26;20001;-82
2024/04/15 10:36:36;;;;;;;3.43;0.90;;;;;;;;;;6612153;26;20014;-82
2024/04/15 10:39:45;;;;;;;2.85;0.70;;;;;;;;;;6605289;26;20345;-82
2024/04/15 10:42:49;;;;;;;5.90;0.90;;;;;;;;;;6613272;26;20006;-81
2024/04/15 10:45:52;;;;;;;3.38;0.80;;;;;;;;;;6600818;26;20463;-79
2024/04/15 10:48:56;;;;;;;;;;;;;;;;;;6609565;26;20011;-81
2024/04/15 10:51:59;;;;;;;4.65;0.70;;;;;;;;;;6607140;26;19938;-81
2024/04/15 10:55:02;;;;;;;1.08;0.65;;;;;;;;;;6608245;26;20350;-80
2024/04/15 10:58:11;;;;;;;2.30;0.80;;;;;;;;;;6609314;26;20074;-81
2024/04/15 11:01:16;;;;;;;3.08;0.60;;;;;;;;;;6609404;26;20020;-82
2024/04/15 11:04:18;;;;;;;2.53;0.80;;;;;;;;;;6609069;26;20002;-80
2024/04/15 11:07:20;;;;;;;2.63;0.77;;;;;;;;;;6615076;26;20019;-81
2024/04/15 11:10:23;;;;;;;5.40;0.70;;;;;;;;;;6617070;26;20025;-82
2024/04/15 11:13:25;;;;;;;3.03;0.70;;;;;;;;;;6606869;26;20005;-79
2024/04/15 11:16:28;;;;;;;2.33;0.80;;;;;;;;;;6588398;26;20005;-82
2024/04/15 11:19:31;;;;;;;3.03;0.70;;;;;;;;;;6606374;26;20000;-80
2024/04/15 11:22:34;;;;;;;1.88;0.68;;;;;;;;;;6606173;26;20013;-81
2024/04/15 11:25:39;;;;;;;3.38;0.80;;;;;;;;;;6622156;26;20009;-82
2024/04/15 11:28:43;;;;;;;3.40;0.90;;;;;;;;;;6608138;26;20030;-81
2024/04/15 11:31:49;;;;;;;0.82;0.50;;;;;;;;;;6611873;26;20024;-82
2024/04/15 11:34:51;;;;;;;2.58;0.60;;;;;;;;;;6578539;26;20476;-80
2024/04/15 11:37:58;;;;;;;1.65;0.50;;;;;;;;;;6610846;26;20045;-82
2024/04/15 11:41:01;;;;;;;1.15;0.93;;;;;;;;;;6638825;26;20079;-83
2024/04/15 11:44:03;;;;;;;1.27;0.50;;;;;;;;;;6602755;26;19997;-82
2024/04/15 11:47:06;;;;;;;2.30;0.55;;;;;;;;;;6600953;26;20020;-83
2024/04/15 11:50:10;;;;;;;8.05;0.75;;;;;;;;;;6602355;26;20447;-81
2024/04/15 11:53:12;;;;;;;1.75;0.68;;;;;;;;;;6599904;26;20050;-81
2024/04/15 11:56:18;;;;;;;4.35;0.65;;;;;;;;;;6592108;26;20013;-83
2024/04/15 11:59:20;;;;;;;1.35;0.50;;;;;;;;;;6608444;26;20343;-82
2024/04/15 12:02:22;;;;;;;3.13;0.60;;;;;;;;;;6595085;26;20018;-83
2024/04/15 12:05:26;;;;;;;2.40;0.50;;;;;;;;;;6614231;26;20011;-82
2024/04/15 12:08:28;;;;;;;1.98;0.50;;;;;;;;;;6609215;26;20452;-82
2024/04/15 12:11:31;;;;;;;3.42;0.98;;;;;;;;;;6614598;26;20568;-82
2024/04/15 12:14:33;;;;;;;2.85;1.25;;;;;;;;;;6610182;26;20001;-84
2024/04/15 12:17:36;;;;;;;1.80;0.70;;;;;;;;;;6611068;26;20451;-84
2024/04/15 12:20:38;;;;;;;;;;;;;;;;;;6605680;26;20019;-83
2024/04/15 12:23:40;;;;;;;1.13;0.60;;;;;;;;;;6611978;26;19973;-84
2024/04/15 12:26:43;;;;;;;2.20;0.38;;;;;;;;;;6597262;26;20001;-83
2024/04/15 12:29:45;;;;;;;1.25;0.40;;;;;;;;;;6605962;26;20017;-82
2024/04/15 12:32:47;;;;;;;3.38;0.50;;;;;;;;;;6626335;26;20009;-84
2024/04/15 12:35:51;;;;;;;3.20;0.70;;;;;;;;;;6637445;26;20022;-83
2024/04/15 12:38:53;;;;;;;3.10;0.57;;;;;;;;;;6617974;26;20056;-83
2024/04/15 12:41:55;;;;;;;1.93;0.50;;;;;;;;;;6610945;26;20014;-83
2024/04/15 12:44:57;;;;;;;2.30;1.00;;;;;;;;;;6608609;26;20384;-83
2024/04/15 12:48:00;;;;;;;1.30;0.38;;;;;;;;;;6620213;26;20912;-83
2024/04/15 12:51:02;;;;;;;2.53;0.50;;;;;;;;;;6613571;26;20009;-83
2024/04/15 12:54:05;;;;;;;1.25;0.50;;;;;;;;;;6581887;26;20005;-82
2024/04/15 12:57:08;;;;;;;0.68;0.50;;;;;;;;;;6616355;26;20056;-83
2024/04/15 13:00:11;;;;;;;1.60;0.40;;;;;;;;;;6621398;26;20006;-83
2024/04/15 13:03:13;;;;;;;2.35;0.50;;;;;;;;;;6604513;26;20017;-83
2024/04/15 13:06:16;;;;;;;3.05;0.52;;;;;;;;;;6614038;26;20017;-83
2024/04/15 13:09:18;;;;;;;3.53;0.60;;;;;;;;;;6594190;26;20009;-84
2024/04/15 13:12:20;;;;;;;2.05;0.70;;;;;;;;;;6606451;26;20012;-82
2024/04/15 13:15:26;;;;;;;2.85;0.60;;;;;;;;;;6619516;26;20052;-83
2024/04/15 13:18:28;;;;;;;2.15;0.50;;;;;;;;;;6612408;26;20013;-83
2024/04/15 13:21:30;;;;;;;1.08;0.40;;;;;;;;;;6606506;26;20016;-84
2024/04/15 13:24:33;;;;;;;1.60;0.40;;;;;;;;;;6606646;26;20007;-84
2024/04/15 13:27:35;;;;;;;2.17;0.60;;;;;;;;;;6609040;26;20029;-84
2024/04/15 13:30:41;;;;;;;1.60;0.40;;;;;;;;;;6595800;26;19996;-84
2024/04/15 13:33:46;;;;;;;1.75;0.43;;;;;;;;;;6604234;26;20038;-86
2024/04/15 13:36:51;;;;;;;4.47;0.80;;;;;;;;;;6630749;26;20030;-83
2024/04/15 13:39:54;;;;;;;0.75;0.40;;;;;;;;;;6615131;26;20038;-84
2024/04/15 13:42:56;;;;;;;0.82;0.60;;;;;;;;;;6594773;26;20009;-83
2024/04/15 13:45:58;;;;;;;3.87;0.50;;;;;;;;;;6589814;26;20010;-81
2024/04/15 13:49:05;;;;;;;2.60;0.70;;;;;;;;;;6586271;26;20404;-83
2024/04/15 13:52:09;;;;;;;2.80;0.60;;;;;;;;;;6608488;26;20012;-82
2024/04/15 13:55:11;;;;;;;3.10;0.63;;;;;;;;;;6595421;26;20050;-82
2024/04/15 13:58:14;;;;;;;2.60;0.70;;;;;;;;;;6607287;26;20020;-82
2024/04/15 14:01:16;;;;;;;4.22;0.82;;;;;;;;;;6600456;26;20053;-82
2024/04/15 14:04:19;;;;;;;1.95;0.68;;;;;;;;;;6611274;26;20464;-83
2024/04/15 14:07:22;;;;;;;3.25;0.90;;;;;;;;;;6600624;26;20641;-84
2024/04/15 14:10:24;;;;;;;5.30;0.82;;;;;;;;;;6589707;26;20002;-83
2024/04/15 14:13:26;;;;;;;5.57;0.95;;;;;;;;;;6623787;26;20010;-81
2024/04/15 14:16:29;;;;;;;3.35;1.40;;;;;;;;;;6590806;26;20472;-82
2024/04/15 14:19:31;;;;;;;2.85;0.60;;;;;;;;;;6613862;26;20009;-84
2024/04/15 14:22:33;;;;;;;1.83;0.60;;;;;;;;;;6601127;26;20016;-82
2024/04/15 14:25:35;;;;;;;7.53;0.90;;;;;;;;;;6597290;26;20009;-83
2024/04/15 14:28:42;;;;;;;1.33;0.50;;;;;;;;;;6603510;26;20384;-82
2024/04/15 14:31:45;;;;;;;3.72;0.68;;;;;;;;;;6606835;26;20005;-81
2024/04/15 14:34:47;;;;;;;2.58;0.73;;;;;;;;;;6576002;26;19998;-81
2024/04/15 14:37:54;;;;;;;1.50;0.50;;;;;;;;;;6604813;26;20009;-81
2024/04/15 14:40:56;;;;;;;5.53;0.67;;;;;;;;;;6593248;26;20002;-82
2024/04/15 14:43:59;;;;;;;3.50;0.60;;;;;;;;;;6604572;26;21095;-82
2024/04/15 14:47:04;;;;;;;2.67;0.52;;;;;;;;;;6600991;26;20455;-82
2024/04/15 14:50:08;;;;;;;4.07;0.73;;;;;;;;;;6611433;26;20007;-82
2024/04/15 14:53:10;;;;;;;3.08;0.70;;;;;;;;;;6600069;26;20029;-81
2024/04/15 14:56:14;;;;;;;1.77;0.50;;;;;;;;;;6610641;26;20020;-82
2024/04/15 14:59:16;;;;;;;2.45;0.60;;;;;;;;;;6596814;26;20447;-81
2024/04/15 15:02:19;;;;;;;5.18;0.57;;;;;;;;;;6596729;26;20006;-81
2024/04/15 15:05:21;;;;;;;1.52;0.60;;;;;;;;;;6613135;26;20005;-80
2024/04/15 15:08:24;;;;;;;1.58;0.40;;;;;;;;;;6620545;26;20013;-81
2024/04/15 15:11:26;;;;;;;1.13;0.40;;;;;;;;;;6610979;26;20016;-81
2024/04/15 15:14:28;;;;;;;0.90;0.50;;;;;;;;;;6611346;26;20006;-80
2024/04/15 15:17:31;;;;;;;1.03;0.47;;;;;;;;;;6601827;26;20443;-80
2024/04/15 15:20:33;;;;;;;1.60;1.27;;;;;;;;;;6598724;26;20041;-80
2024/04/15 15:23:35;;;;;;;0.82;0.50;;;;;;;;;;6614738;26;19998;-80
2024/04/15 15:26:39;;;;;;;2.80;0.57;;;;;;;;;;6597770;26;20013;-81
2024/04/15 15:29:41;;;;;;;1.83;0.60;;;;;;;;;;6599093;26;20017;-81
2024/04/15 15:32:45;;;;;;;1.10;0.50;;;;;;;;;;6588640;26;20001;-81
2024/04/15 15:35:47;;;;;;;1.58;0.50;;;;;;;;;;6616551;26;20004;-81
2024/04/15 15:38:50;;;;;;;3.15;0.75;;;;;;;;;;6613521;26;20086;-82
2024/04/15 15:41:52;;;;;;;2.70;0.60;;;;;;;;;;6587272;26;20836;-82
2024/04/15 15:44:55;;;;;;;2.97;0.40;;;;;;;;;;6599428;26;20012;-82
2024/04/15 15:47:57;;;;;;;1.10;0.40;;;;;;;;;;6596586;26;20083;-82
2024/04/15 15:51:00;;;;;;;;;;;;;;;;;;6599722;26;20021;-82
2024/04/15 15:54:03;;;;;;;3.92;0.60;;;;;;;;;;6597057;26;19934;-83
2024/04/15 15:57:06;;;;;;;3.78;0.75;;;;;;;;;;6595145;26;20009;-81
2024/04/15 16:00:10;;;;;;;4.45;0.68;;;;;;;;;;6598574;26;20008;-80
2024/04/15 16:03:19;;;;;;;3.42;0.47;;;;;;;;;;6607245;26;20007;-81
2024/04/15 16:06:23;;;;;;;1.15;0.70;;;;;;;;;;6602149;26;20016;-81
2024/04/15 16:09:26;;;;;;;2.17;0.68;;;;;;;;;;6606234;26;20000;-80
2024/04/15 16:12:28;;;;;;;1.77;0.32;;;;;;;;;;6598608;26;20005;-80
2024/04/15 16:15:30;;;;;;;2.17;0.60;;;;;;;;;;6604767;26;20038;-78
2024/04/15 16:18:33;;;;;;;2.47;0.50;;;;;;;;;;6593444;26;20010;-80
2024/04/15 16:21:37;;;;;;;1.67;0.50;;;;;;;;;;6600351;26;20005;-81
2024/04/15 16:24:40;;;;;;;0.40;0.32;;;;;;;;;;6598846;26;20020;-80
2024/04/15 16:27:42;;;;;;;0.33;0.10;;;;;;;;;;6590608;26;20013;-78
2024/04/15 16:30:44;;;;;;;1.43;0.17;;;;;;;;;;6604819;26;20001;-77
2024/04/15 16:33:46;;;;;;;0.00;0.00;;;;;;;;;;6603595;26;20079;-77
2024/04/15 16:36:49;;;;;;;0.10;0.10;;;;;;;;;;6595972;26;20020;-77
2024/04/15 16:39:51;;;;;;;0.43;0.10;;;;;;;;;;6585029;26;20395;-78
2024/04/15 16:42:53;;;;;;;0.55;0.15;;;;;;;;;;6591534;26;20002;-77
2024/04/15 16:45:56;;;;;;;0.10;0.10;;;;;;;;;;6594248;26;20061;-78
2024/04/15 16:48:58;;;;;;;0.75;0.20;;;;;;;;;;6595047;26;20001;-77
2024/04/15 16:52:01;;;;;;;0.10;0.10;;;;;;;;;;6599032;26;20004;-78
2024/04/15 16:55:04;;;;;;;0.00;0.00;;;;;;;;;;6591512;26;20411;-79
2024/04/15 16:58:06;;;;;;;0.10;0.10;;;;;;;;;;6595129;26;20005;-80
2024/04/15 17:01:09;;;;;;;0.10;0.10;;;;;;;;;;6594177;26;20061;-79
2024/04/15 17:04:11;;;;;;;0.10;0.10;;;;;;;;;;6601758;26;20008;-78
2024/04/15 17:07:13;;;;;;;0.10;0.10;;;;;;;;;;6609214;26;20001;-78
2024/04/15 17:10:16;;;;;;;0.50;0.20;;;;;;;;;;6569150;26;20009;-78
2024/04/15 17:13:18;;;;;;;0.20;0.20;;;;;;;;;;6598334;26;20010;-79
2024/04/15 17:16:21;;;;;;;0.25;0.20;;;;;;;;;;6604551;26;19997;-78
2024/04/15 17:19:23;;;;;;;0.22;0.22;;;;;;;;;;6608548;26;20012;-79
2024/04/15 17:22:25;;;;;;;0.20;0.20;;;;;;;;;;6600702;26;20024;-79
2024/04/15 17:25:28;;;;;;;0.20;0.20;;;;;;;;;;6605201;26;20049;-79
2024/04/15 17:28:30;;;;;;;1.60;0.40;;;;;;;;;;6603110;26;20087;-78
2024/04/15 17:31:32;;;;;;;1.80;0.50;;;;;;;;;;6596678;26;20072;-79
2024/04/15 17:34:35;;;;;;;0.30;0.30;;;;;;;;;;6606604;26;20029;-79
2024/04/15 17:37:39;;;;;;;1.47;0.40;;;;;;;;;;6609497;26;20056;-79
2024/04/15 17:40:41;;;;;;;0.28;0.28;;;;;;;;;;6597675;26;20025;-79
2024/04/15 17:43:44;;;;;;;1.77;0.30;;;;;;;;;;6593715;26;20030;-78
2024/04/15 17:46:46;;;;;;;1.45;0.40;;;;;;;;;;6594921;26;20095;-79
2024/04/15 17:49:48;;;;;;;0.55;0.30;;;;;;;;;;6594453;26;20028;-77
2024/04/15 17:52:52;;;;;;;0.40;0.32;;;;;;;;;;6597677;26;20447;-75
2024/04/15 17:55:54;;;;;;;2.17;0.50;;;;;;;;;;6595720;26;20005;-78
2024/04/15 17:58:56;;;;;;;0.60;0.40;;;;;;;;;;6601566;26;20013;-78
2024/04/15 18:01:59;;;;;;;1.83;0.80;;;;;;;;;;6632132;26;20028;-79
2024/04/15 18:05:02;;;;;;;0.85;0.65;;;;;;;;;;6595849;26;20058;-79
2024/04/15 18:08:05;;;;;;;1.30;0.70;;;;;;;;;;6603537;26;20017;-78
2024/04/15 18:11:08;;;;;;;2.35;0.63;;;;;;;;;;6605244;26;20012;-79
2024/04/15 18:14:10;;;;;;;1.00;0.67;;;;;;;;;;6608827;26;20078;-77
2024/04/15 18:17:13;;;;;;;2.53;0.80;;;;;;;;;;6599818;26;20033;-79